Time;durP1;ratioP1;P1;durP2;ratioP2;P2;SDS_P1;SDS_P2;PMS_P1;PMS_P2;Temp;Humidity;BMP_temperature;BMP_pressure;BME280_temperature;BME280_humidity;BME280_pressure;Samples;Min_cycle;Max_cycle;Signal;HPM_P1;HPM_P2
2021/05/12 20:21:05;;;;;;;28.08;25.17;;;;;;;;;;5062083;27;20410;-68
2021/05/12 20:23:31;;;;;;;29.02;26.23;;;;;;;;;;5040188;28;20492;-69
2021/05/12 20:25:57;;;;;;;29.33;26.35;;;;;;;;;;5044391;28;20033;-67
2021/05/12 20:28:23;;;;;;;28.80;25.98;;;;;;;;;;5044228;28;60091;-69
2021/05/12 20:30:50;;;;;;;28.90;26.10;;;;;;;;;;5050891;28;20029;-70
2021/05/12 20:39:45;;;;;;;25.80;23.17;;;;;;;24.06;35.24;100344.56;5047569;27;58130;-73
2021/05/12 20:42:11;;;;;;;26.27;23.77;;;;;;;23.76;35.81;100342.59;5064781;28;20518;-72
2021/05/12 20:44:37;;;;;;;25.80;23.30;;;;;;;23.54;36.33;100341.53;5064517;28;20044;-70
2021/05/12 20:47:06;;;;;;;25.93;23.23;;;;;;;23.37;36.77;100345.66;5061770;28;20286;-71
2021/05/12 20:49:33;;;;;;;25.40;22.90;;;;;;;23.26;37.19;100339.97;5071547;28;20385;-72
2021/05/12 20:51:59;;;;;;;28.35;25.45;;;;;;;22.80;39.27;100342.78;5060671;28;20073;-69
2021/05/12 20:54:26;;;;;;;27.02;24.25;;;;;;;22.32;40.23;100345.94;5034303;28;20096;-68
2021/05/12 20:56:53;;;;;;;28.92;25.08;;;;;;;21.90;41.16;100345.53;5033345;28;20037;-70
2021/05/12 20:59:23;;;;;;;12.30;11.00;;;;;;;16.25;55.25;100365.03;5033612;28;20038;-69
2021/05/12 21:01:50;;;;;;;9.45;6.65;;;;;;;14.39;61.36;100357.84;5020697;28;20029;-68
2021/05/12 21:04:18;;;;;;;11.85;9.43;;;;;;;13.60;65.42;100358.13;5022122;28;20545;-69
2021/05/12 21:06:44;;;;;;;11.13;8.40;;;;;;;13.37;66.48;100353.72;5021414;28;20057;-69
2021/05/12 21:09:11;;;;;;;9.40;7.25;;;;;;;12.71;68.87;100353.91;5024161;28;20025;-69
2021/05/12 21:11:37;;;;;;;11.15;7.82;;;;;;;12.28;71.27;100356.84;5019751;28;20132;-70
2021/05/12 21:14:03;;;;;;;10.38;7.75;;;;;;;12.57;69.77;100360.16;5019333;28;20068;-69
2021/05/12 21:16:29;;;;;;;13.15;8.10;;;;;;;12.04;71.85;100364.06;5016888;28;20776;-68
2021/05/12 21:18:56;;;;;;;11.82;8.23;;;;;;;11.93;73.07;100367.22;5016338;28;20034;-68
2021/05/12 21:23:52;;;;;;;12.23;9.00;;;;;;;11.63;74.26;100372.00;5019768;28;20434;-68
2021/05/12 21:26:19;;;;;;;10.80;8.13;;;;;;;12.22;72.24;100361.59;5018685;28;20026;-68
2021/05/12 21:28:45;;;;;;;13.77;9.55;;;;;;;11.35;75.65;100369.94;5019781;28;20049;-69
2021/05/12 21:31:16;;;;;;;13.57;8.73;;;;;;;11.48;75.42;100365.69;5016201;28;20153;-69
2021/05/12 21:33:43;;;;;;;13.15;8.82;;;;;;;11.43;75.61;100360.28;5020661;28;20529;-68
2021/05/12 21:36:10;;;;;;;12.20;9.25;;;;;;;11.83;74.15;100360.81;5020620;28;20029;-68
2021/05/12 21:38:37;;;;;;;12.70;9.13;;;;;;;11.54;75.46;100360.97;5020850;28;20045;-68
2021/05/12 21:41:04;;;;;;;12.70;9.32;;;;;;;11.41;76.11;100362.50;5019959;28;20041;-67
2021/05/12 21:43:31;;;;;;;11.68;9.00;;;;;;;11.66;74.35;100361.34;5019687;28;20117;-67
2021/05/12 21:45:57;;;;;;;14.38;9.38;;;;;;;11.35;75.97;100358.22;5020571;28;20075;-67
2021/05/12 21:48:23;;;;;;;14.95;10.95;;;;;;;11.06;77.12;100356.41;5021248;28;20542;-69
2021/05/12 21:50:52;;;;;;;14.98;10.70;;;;;;;10.90;78.72;100353.06;5004930;28;20036;-67
2021/05/12 21:53:19;;;;;;;15.32;9.90;;;;;;;11.36;76.52;100344.31;5006919;28;20476;-68
2021/05/12 21:55:45;;;;;;;14.70;9.43;;;;;;;11.62;75.24;100345.88;5006297;28;20441;-69
2021/05/12 21:58:12;;;;;;;16.73;12.07;;;;;;;11.22;76.74;100335.25;5002355;28;20045;-68
2021/05/12 22:00:43;;;;;;;14.32;10.43;;;;;;;11.62;75.05;100335.78;5002441;28;20038;-69
2021/05/12 22:03:16;;;;;;;15.27;10.93;;;;;;;11.39;76.10;100332.84;5000775;28;20401;-68
2021/05/12 22:24:43;;;;;;;16.48;11.55;;;;;;;11.09;78.12;100325.06;5004126;28;20053;-69
2021/05/12 22:32:27;;;;;;;18.83;12.70;;;;;;;10.79;80.38;100322.41;5006392;28;20087;-69
2021/05/12 22:34:53;;;;;;;18.75;13.18;;;;;;;10.30;81.42;100315.28;5003323;28;20038;-68
2021/05/12 22:37:20;;;;;;;19.85;14.20;;;;;;;10.26;81.70;100317.78;5005506;28;20034;-68
2021/05/12 22:39:46;;;;;;;19.73;12.73;;;;;;;10.54;80.80;100313.44;5006708;28;20033;-69
2021/05/12 22:42:12;;;;;;;18.15;12.35;;;;;;;10.79;79.73;100325.16;4999071;28;20041;-68
2021/05/12 22:44:38;;;;;;;18.02;13.65;;;;;;;10.28;81.60;100318.28;5003307;28;20118;-67
2021/05/12 22:47:05;;;;;;;20.63;13.95;;;;;;;10.05;82.29;100325.28;5005111;28;21622;-67
2021/05/12 22:49:32;;;;;;;19.95;13.40;;;;;;;10.45;82.08;100322.53;5005155;28;20044;-69
2021/05/12 22:51:58;;;;;;;17.33;12.45;;;;;;;10.81;79.71;100324.84;5004422;28;20052;-68
2021/05/12 22:54:35;;;;;;;17.83;11.85;;;;;;;10.96;79.11;100321.13;5002968;28;20042;-67
2021/05/12 22:59:28;;;;;;;17.70;12.82;;;;;;;10.55;81.04;100330.59;5001952;28;20038;-68
2021/05/12 23:01:55;;;;;;;18.35;12.02;;;;;;;10.92;78.68;100329.06;5004359;28;20073;-68
2021/05/12 23:04:24;;;;;;;19.87;12.43;;;;;;;11.17;78.11;100322.50;5003393;28;20650;-69
2021/05/12 23:06:51;;;;;;;16.88;12.50;;;;;;;11.08;78.46;100321.53;5005910;28;20045;-68
2021/05/12 23:09:17;;;;;;;18.10;12.00;;;;;;;10.91;79.30;100322.03;4999263;28;20173;-68
2021/05/12 23:11:43;;;;;;;16.02;11.82;;;;;;;11.06;78.75;100321.00;5003707;28;20129;-70
2021/05/12 23:14:09;;;;;;;16.67;11.43;;;;;;;10.95;79.53;100322.22;5004677;28;20109;-69
2021/05/12 23:16:35;;;;;;;17.35;11.50;;;;;;;11.09;79.01;100312.28;5002341;28;20052;-68
2021/05/12 23:19:01;;;;;;;16.80;12.05;;;;;;;11.03;78.95;100314.25;5003208;28;20049;-68
2021/05/12 23:21:27;;;;;;;17.45;12.07;;;;;;;10.72;80.04;100306.44;5002733;28;20034;-70
2021/05/12 23:24:37;;;;;;;15.23;11.13;;;;;;;10.81;80.22;100306.63;5004117;28;20156;-68
2021/05/12 23:26:43;;;;;;;18.73;12.82;;;;;;;10.74;80.03;100314.31;5005292;28;20148;-68
2021/05/12 23:29:09;;;;;;;18.75;12.65;;;;;;;10.49;81.43;100304.53;5006594;28;20148;-69
2021/05/12 23:31:35;;;;;;;15.70;11.40;;;;;;;10.92;79.29;100307.28;5002548;28;20042;-68
2021/05/12 23:34:02;;;;;;;17.65;11.73;;;;;;;11.02;78.55;100309.06;5005213;28;20479;-69
2021/05/12 23:36:28;;;;;;;36.70;9.65;;;;;;;12.22;71.90;100304.28;5001586;28;20040;-67
2021/05/12 23:39:02;;;;;;;71.45;13.05;;;;;;;13.69;65.79;100291.75;4984583;28;20038;-67
2021/05/12 23:41:30;;;;;;;77.57;14.35;;;;;;;14.73;61.61;100298.94;5000210;28;20113;-68
2021/05/12 23:43:57;;;;;;;123.38;16.13;;;;;;;15.52;59.76;100305.34;5001985;28;20124;-69
2021/05/12 23:46:23;;;;;;;79.43;13.93;;;;;;;15.97;57.51;100293.25;5006202;28;20152;-69
2021/05/12 23:48:49;;;;;;;61.30;14.38;;;;;;;16.28;55.54;100294.94;5007175;28;20087;-67
2021/05/12 23:51:15;;;;;;;67.10;12.88;;;;;;;16.56;54.98;100297.25;5007252;28;20037;-67
2021/05/12 23:53:42;;;;;;;49.83;13.55;;;;;;;16.74;54.13;100298.03;5004320;28;20046;-68
2021/05/12 23:56:08;;;;;;;69.40;12.63;;;;;;;16.93;53.76;100301.16;5006361;28;20800;-69
2021/05/12 23:58:34;;;;;;;50.50;11.85;;;;;;;17.07;52.92;100295.44;5002730;28;20559;-68
